Time;durP1;ratioP1;P1;durP2;ratioP2;P2;SDS_P1;SDS_P2;PMS_P1;PMS_P2;Temp;Humidity;BMP_temperature;BMP_pressure;BME280_temperature;BME280_humidity;BME280_pressure;Samples;Min_cycle;Max_cycle;Signal;HPM_P1;HPM_P2
2022/05/17 00:01:12;;;;;;;5.43;4.07;;;19.20;95.20;;;;;;4873183;29;20572;-83
2022/05/17 00:03:38;;;;;;;6.27;4.03;;;19.20;95.30;;;;;;4874145;29;20559;-84
2022/05/17 00:06:06;;;;;;;5.60;3.80;;;19.20;95.60;;;;;;4876086;29;20563;-83
2022/05/17 00:08:34;;;;;;;5.20;3.50;;;19.20;95.30;;;;;;4876045;29;20479;-85
2022/05/17 00:11:01;;;;;;;5.33;3.40;;;19.10;95.20;;;;;;4875851;29;20469;-84
2022/05/17 00:13:28;;;;;;;5.50;4.00;;;19.20;95.40;;;;;;4879613;29;20455;-85
2022/05/17 00:15:55;;;;;;;8.47;4.50;;;19.20;95.30;;;;;;4877847;29;20502;-84
2022/05/17 00:18:23;;;;;;;3.70;3.40;;;19.20;95.30;;;;;;4877079;29;20488;-82
2022/05/17 00:20:51;;;;;;;8.03;4.20;;;19.30;95.30;;;;;;4875356;29;20855;-84
2022/05/17 00:23:19;;;;;;;4.43;3.83;;;19.20;95.30;;;;;;4876500;29;20535;-86
2022/05/17 00:25:47;;;;;;;7.47;4.20;;;19.20;95.30;;;;;;4893755;29;20484;-85
2022/05/17 00:28:19;;;;;;;5.47;4.10;;;19.20;95.20;;;;;;4883577;29;20519;-85
2022/05/17 00:30:46;;;;;;;7.10;4.50;;;19.10;95.30;;;;;;4884170;29;20487;-86
2022/05/17 00:33:14;;;;;;;7.30;4.00;;;19.40;95.30;;;;;;4875885;29;20479;-85
2022/05/17 00:35:43;;;;;;;7.27;4.00;;;19.40;94.90;;;;;;4877271;29;20487;-86
2022/05/17 00:38:11;;;;;;;4.87;4.10;;;19.30;95.10;;;;;;4877455;29;20564;-83
2022/05/17 00:40:38;;;;;;;4.47;3.97;;;19.20;95.30;;;;;;4881210;29;20821;-84
2022/05/17 00:43:08;;;;;;;5.10;4.10;;;19.00;95.50;;;;;;4882256;29;20453;-84
2022/05/17 00:45:38;;;;;;;5.33;3.90;;;18.90;95.80;;;;;;4879623;29;20495;-85
2022/05/17 00:48:08;;;;;;;8.33;3.43;;;18.90;96.00;;;;;;4883201;29;20495;-85
2022/05/17 00:50:42;;;;;;;6.33;4.00;;;18.90;96.20;;;;;;4886532;29;20970;-84
2022/05/17 00:53:13;;;;;;;8.07;4.67;;;18.90;96.30;;;;;;4882354;29;20476;-85
2022/05/17 00:55:54;;;;;;;5.33;4.20;;;18.90;96.60;;;;;;4880717;29;20504;-84
2022/05/17 00:58:30;;;;;;;7.43;4.43;;;18.90;96.60;;;;;;4897275;29;20481;-85
2022/05/17 01:01:03;;;;;;;7.07;4.10;;;18.80;96.30;;;;;;4880031;29;20444;-83
2022/05/17 01:03:52;;;;;;;6.83;4.77;;;18.70;96.50;;;;;;4880805;29;20529;-84
2022/05/17 01:06:20;;;;;;;7.47;4.63;;;18.70;96.80;;;;;;4879680;29;20575;-85
2022/05/17 01:08:47;;;;;;;4.77;4.23;;;18.90;97.40;;;;;;4879049;29;21038;-84
2022/05/17 01:11:14;;;;;;;6.17;5.07;;;18.90;97.70;;;;;;4878227;29;20479;-87
2022/05/17 01:16:27;;;;;;;5.80;4.67;;;19.10;98.50;;;;;;4883082;29;20492;-85
2022/05/17 01:18:54;;;;;;;6.10;5.00;;;18.80;98.70;;;;;;4879655;29;20525;-83
2022/05/17 01:21:20;;;;;;;7.60;5.33;;;18.80;99.20;;;;;;4877081;29;20479;-86
2022/05/17 01:23:47;;;;;;;7.40;4.63;;;18.80;99.00;;;;;;4875782;29;20475;-85
2022/05/17 01:26:21;;;;;;;9.67;4.97;;;18.60;98.10;;;;;;4879024;29;20889;-85
2022/05/17 01:28:48;;;;;;;8.83;4.80;;;18.50;98.30;;;;;;4883506;29;20460;-83
2022/05/17 01:31:17;;;;;;;5.00;4.30;;;18.60;98.40;;;;;;4872905;29;20535;-84
2022/05/17 01:33:44;;;;;;;6.50;4.87;;;18.50;97.90;;;;;;4872663;29;20467;-83
2022/05/17 01:36:12;;;;;;;8.40;4.83;;;18.50;97.80;;;;;;4872515;29;20498;-86
2022/05/17 01:38:39;;;;;;;5.73;4.87;;;18.40;98.00;;;;;;4873688;29;20495;-84
2022/05/17 01:41:06;;;;;;;6.83;5.07;;;18.40;97.70;;;;;;4874063;29;21077;-84
2022/05/17 01:43:33;;;;;;;5.63;4.57;;;18.40;97.40;;;;;;4874068;29;20468;-83
2022/05/17 01:46:10;;;;;;;7.37;5.17;;;18.40;97.50;;;;;;4873180;29;21039;-84
2022/05/17 01:48:38;;;;;;;13.73;4.63;;;18.30;97.60;;;;;;4873334;29;20476;-85
2022/05/17 01:51:07;;;;;;;6.87;4.83;;;18.20;98.10;;;;;;4874628;29;20469;-85
2022/05/17 01:53:34;;;;;;;6.37;5.00;;;18.20;98.30;;;;;;4876783;29;20471;-84
2022/05/17 01:56:02;;;;;;;9.50;4.90;;;18.20;98.40;;;;;;4877336;29;20485;-84
2022/05/17 01:58:29;;;;;;;10.00;5.13;;;18.20;98.50;;;;;;4878723;29;20995;-85
2022/05/17 02:00:55;;;;;;;8.70;4.50;;;18.20;98.50;;;;;;4873860;29;20519;-86
2022/05/17 02:03:22;;;;;;;7.67;5.07;;;18.20;98.40;;;;;;4877034;29;20492;-83
2022/05/17 02:05:49;;;;;;;10.40;6.53;;;18.30;98.30;;;;;;4877653;29;20548;-82
2022/05/17 02:08:16;;;;;;;9.47;6.00;;;18.30;97.70;;;;;;4871866;29;20463;-84
2022/05/17 02:10:42;;;;;;;5.87;5.13;;;18.30;97.40;;;;;;4873728;29;20464;-83
2022/05/17 02:13:10;;;;;;;9.80;5.50;;;18.30;97.40;;;;;;4873794;29;21856;-84
2022/05/17 02:15:37;;;;;;;7.80;5.70;;;18.20;97.60;;;;;;4875465;29;20496;-86
2022/05/17 02:18:04;;;;;;;11.50;5.40;;;18.40;98.30;;;;;;4869915;29;20496;-81
2022/05/17 02:20:33;;;;;;;8.67;5.50;;;18.50;99.10;;;;;;4877862;29;20469;-81
2022/05/17 02:23:00;;;;;;;6.10;5.20;;;18.40;99.00;;;;;;4876922;29;20519;-85
2022/05/17 02:25:27;;;;;;;10.10;6.67;;;18.40;99.60;;;;;;4885295;29;20476;-85
2022/05/17 02:27:54;;;;;;;9.23;6.37;;;18.50;99.90;;;;;;4880137;29;20463;-85
2022/05/17 02:30:21;;;;;;;8.73;5.53;;;18.40;99.90;;;;;;4877486;29;20492;-82
2022/05/17 02:32:49;;;;;;;8.07;5.67;;;18.40;99.90;;;;;;4876875;29;21279;-86
2022/05/17 02:35:15;;;;;;;7.13;5.07;;;18.10;99.90;;;;;;4879128;29;20585;-85
2022/05/17 02:37:43;;;;;;;8.63;5.47;;;18.00;99.90;;;;;;4874339;29;20499;-84
2022/05/17 02:40:10;;;;;;;7.80;5.00;;;17.90;99.90;;;;;;4877108;29;20463;-84
2022/05/17 02:42:37;;;;;;;6.53;5.37;;;18.00;99.90;;;;;;4878092;29;20943;-85
2022/05/17 02:45:06;;;;;;;7.00;5.13;;;17.90;99.90;;;;;;4875870;29;22472;-86
2022/05/17 02:47:33;;;;;;;5.97;5.37;;;17.90;99.90;;;;;;4875727;29;20817;-85
2022/05/17 02:50:00;;;;;;;7.90;7.10;;;18.10;99.90;;;;;;4876844;29;20455;-86
2022/05/17 02:52:27;;;;;;;8.10;7.33;;;18.20;99.90;;;;;;4876945;29;20472;-86
2022/05/17 02:54:54;;;;;;;7.57;6.87;;;18.30;99.90;;;;;;4873877;29;21853;-84
2022/05/17 02:57:20;;;;;;;9.03;7.53;;;18.20;99.90;;;;;;4874526;29;20460;-85
2022/05/17 02:59:47;;;;;;;7.47;6.80;;;17.90;99.90;;;;;;4875666;29;20665;-84
2022/05/17 03:02:13;;;;;;;7.70;6.97;;;17.60;99.90;;;;;;4873867;29;20622;-84
2022/05/17 03:04:41;;;;;;;8.43;7.53;;;17.50;99.90;;;;;;4874924;29;20523;-84
2022/05/17 03:07:10;;;;;;;8.60;6.83;;;17.70;99.90;;;;;;4879806;29;20473;-85
2022/05/17 03:09:37;;;;;;;8.90;6.67;;;17.70;99.90;;;;;;4875582;29;20468;-83
2022/05/17 03:12:05;;;;;;;8.77;7.50;;;17.60;99.90;;;;;;4872040;29;20528;-85
2022/05/17 03:14:31;;;;;;;7.73;6.93;;;17.40;99.90;;;;;;4876362;29;20452;-86
2022/05/17 03:16:58;;;;;;;9.43;7.83;;;17.40;99.90;;;;;;4892998;29;20460;-84
2022/05/17 03:19:25;;;;;;;11.20;7.70;;;17.40;99.90;;;;;;4878954;29;20513;-85
2022/05/17 03:21:52;;;;;;;9.30;7.30;;;17.30;99.90;;;;;;4876575;29;20470;-85
2022/05/17 03:24:19;;;;;;;6.83;6.17;;;17.30;99.90;;;;;;4878685;29;20495;-84
2022/05/17 03:27:08;;;;;;;9.73;7.20;;;17.30;99.90;;;;;;4874798;29;20471;-85
2022/05/17 03:29:35;;;;;;;8.77;7.87;;;17.20;99.90;;;;;;4875043;29;20540;-84
2022/05/17 03:32:03;;;;;;;8.60;7.70;;;17.30;99.90;;;;;;4881940;29;20460;-83
2022/05/17 03:34:30;;;;;;;8.83;8.03;;;17.20;99.90;;;;;;4886122;29;20467;-87
2022/05/17 03:36:57;;;;;;;9.43;7.97;;;17.10;99.90;;;;;;4877094;29;20471;-86
2022/05/17 03:39:24;;;;;;;9.70;7.93;;;17.20;99.90;;;;;;4882022;29;20503;-84
2022/05/17 03:41:50;;;;;;;8.50;7.33;;;17.30;99.90;;;;;;4886329;29;20468;-84
2022/05/17 03:44:17;;;;;;;8.97;8.07;;;17.10;99.90;;;;;;4886234;29;20468;-87
2022/05/17 03:46:44;;;;;;;9.90;8.73;;;17.00;99.90;;;;;;4888364;29;20492;-85
2022/05/17 03:49:11;;;;;;;10.93;9.83;;;16.90;99.90;;;;;;4885931;29;20475;-83
2022/05/17 03:51:38;;;;;;;10.90;8.70;;;16.90;99.90;;;;;;4889472;29;20465;-86
2022/05/17 03:54:04;;;;;;;9.90;8.83;;;16.80;99.90;;;;;;4887349;29;20463;-81
2022/05/17 03:56:31;;;;;;;11.63;10.03;;;16.90;99.90;;;;;;4891576;29;20485;-84
2022/05/17 03:58:58;;;;;;;11.40;10.13;;;17.00;99.90;;;;;;4887915;29;20484;-84
2022/05/17 04:01:25;;;;;;;10.27;9.20;;;17.00;99.90;;;;;;4905832;29;20455;-82
2022/05/17 04:03:52;;;;;;;12.70;9.77;;;17.00;99.90;;;;;;4907442;29;20456;-83
2022/05/17 04:06:22;;;;;;;16.70;9.30;;;16.90;99.90;;;;;;4892324;29;20488;-84
2022/05/17 04:08:50;;;;;;;9.33;8.23;;;16.70;99.90;;;;;;4893273;29;20468;-85
2022/05/17 04:11:17;;;;;;;8.90;8.00;;;16.70;99.90;;;;;;4891821;29;20470;-85
2022/05/17 04:13:43;;;;;;;10.93;9.27;;;16.70;99.90;;;;;;4889273;29;20464;-82
2022/05/17 04:16:10;;;;;;;10.60;9.60;;;16.70;99.90;;;;;;4889348;29;20483;-84
2022/05/17 04:18:37;;;;;;;10.97;9.90;;;16.70;99.90;;;;;;4904791;29;20480;-83
2022/05/17 04:21:05;;;;;;;10.70;9.57;;;16.60;99.90;;;;;;4891364;29;20464;-85
2022/05/17 04:23:32;;;;;;;11.57;9.50;;;16.50;99.90;;;;;;4893923;29;20444;-83
2022/05/17 04:25:59;;;;;;;11.70;9.90;;;16.40;99.90;;;;;;4891541;29;20499;-84
2022/05/17 04:28:26;;;;;;;9.77;8.73;;;16.50;99.90;;;;;;4888255;29;20468;-84
2022/05/17 04:30:53;;;;;;;13.57;9.50;;;16.60;99.90;;;;;;4890203;29;20555;-84
2022/05/17 04:33:21;;;;;;;13.50;9.77;;;16.60;99.90;;;;;;4889735;29;20459;-84
2022/05/17 04:35:48;;;;;;;10.90;9.80;;;16.70;99.90;;;;;;4892181;29;20560;-85
2022/05/17 04:38:15;;;;;;;10.90;9.80;;;16.80;99.90;;;;;;4892838;29;20480;-84
2022/05/17 04:40:42;;;;;;;10.60;9.50;;;16.80;99.90;;;;;;4891408;29;20471;-85
2022/05/17 04:43:10;;;;;;;10.47;9.40;;;16.80;99.90;;;;;;4891318;29;20519;-84
2022/05/17 04:45:37;;;;;;;10.63;9.53;;;16.70;99.90;;;;;;4889816;29;20484;-85
2022/05/17 04:48:07;;;;;;;14.40;10.03;;;16.80;99.90;;;;;;4885135;29;20971;-84
2022/05/17 04:50:36;;;;;;;10.83;9.80;;;16.80;99.90;;;;;;4888724;29;20591;-84
2022/05/17 04:53:04;;;;;;;13.17;10.43;;;16.80;99.90;;;;;;4876589;29;20499;-81
2022/05/17 04:55:31;;;;;;;11.27;8.50;;;16.70;99.90;;;;;;4877726;29;20584;-86
2022/05/17 04:57:58;;;;;;;10.30;9.40;;;16.70;99.90;;;;;;4878577;29;20468;-84
2022/05/17 05:00:26;;;;;;;10.37;9.27;;;16.80;99.90;;;;;;4881585;29;20496;-85
2022/05/17 05:02:53;;;;;;;10.80;8.87;;;17.00;99.90;;;;;;4878341;29;20464;-83
2022/05/17 05:05:22;;;;;;;9.23;8.13;;;17.10;99.90;;;;;;4879119;29;20945;-81
2022/05/17 05:07:49;;;;;;;11.20;8.20;;;17.10;99.90;;;;;;4874692;29;20495;-86
2022/05/17 05:10:16;;;;;;;9.20;8.30;;;17.10;99.90;;;;;;4879465;29;20556;-80
2022/05/17 05:12:44;;;;;;;10.50;9.10;;;17.10;99.90;;;;;;4873714;29;20555;-85
2022/05/17 05:15:11;;;;;;;10.07;9.07;;;16.90;99.90;;;;;;4877243;29;20480;-84
2022/05/17 05:17:38;;;;;;;9.47;8.57;;;17.10;99.90;;;;;;4879424;29;20472;-81
2022/05/17 05:20:08;;;;;;;10.83;9.73;;;16.90;99.90;;;;;;4879003;29;20493;-82
2022/05/17 05:22:35;;;;;;;10.97;9.87;;;17.00;99.90;;;;;;4879295;29;20462;-86
2022/05/17 05:25:08;;;;;;;9.60;8.60;;;17.00;99.90;;;;;;4878274;29;20587;-82
2022/05/17 05:27:36;;;;;;;11.13;10.00;;;17.10;99.90;;;;;;4877732;29;20540;-83
2022/05/17 05:30:06;;;;;;;12.53;10.23;;;17.10;99.90;;;;;;4885853;29;20486;-82
2022/05/17 05:32:32;;;;;;;12.37;11.20;;;17.10;99.90;;;;;;4885748;29;20465;-85
2022/05/17 05:34:59;;;;;;;10.40;9.40;;;17.20;99.90;;;;;;4883822;29;20496;-83
2022/05/17 05:37:25;;;;;;;10.43;9.43;;;17.20;99.90;;;;;;4875873;29;20468;-83
2022/05/17 05:39:52;;;;;;;11.80;10.77;;;17.10;99.90;;;;;;4870200;29;20521;-81
2022/05/17 05:42:19;;;;;;;12.13;11.03;;;17.40;99.90;;;;;;4870475;29;20808;-82
2022/05/17 05:44:45;;;;;;;12.07;10.40;;;17.40;99.90;;;;;;4898675;29;20567;-85
2022/05/17 05:47:12;;;;;;;11.60;10.40;;;17.50;99.90;;;;;;4891978;29;20527;-86
2022/05/17 05:49:39;;;;;;;22.43;10.93;;;17.40;99.90;;;;;;4901826;29;20441;-86
2022/05/17 05:52:06;;;;;;;13.20;9.10;;;17.30;99.90;;;;;;4889643;29;20475;-81
2022/05/17 05:54:33;;;;;;;9.27;8.33;;;17.30;99.90;;;;;;4875082;29;20483;-85
2022/05/17 05:57:01;;;;;;;11.70;8.63;;;17.40;99.90;;;;;;4872442;29;20651;-82
2022/05/17 05:59:28;;;;;;;9.73;8.83;;;17.70;99.90;;;;;;4873008;29;20492;-84
2022/05/17 06:01:57;;;;;;;9.93;8.67;;;17.80;99.90;;;;;;4872617;29;20959;-84
2022/05/17 06:04:27;;;;;;;9.90;8.50;;;17.80;99.90;;;;;;4871728;29;20461;-83
2022/05/17 06:06:56;;;;;;;10.70;9.47;;;17.80;99.90;;;;;;4878690;29;20556;-85
2022/05/17 06:09:26;;;;;;;11.13;9.00;;;18.00;99.90;;;;;;4886129;29;20511;-84
2022/05/17 06:11:56;;;;;;;13.03;9.00;;;17.90;99.90;;;;;;4887366;29;20459;-84
2022/05/17 06:14:23;;;;;;;10.30;9.30;;;18.00;99.90;;;;;;4886452;29;20527;-83
2022/05/17 06:16:51;;;;;;;10.60;9.53;;;18.30;99.90;;;;;;4880861;29;20467;-84
2022/05/17 06:19:18;;;;;;;9.77;8.83;;;18.00;99.90;;;;;;4874539;29;20497;-85
2022/05/17 06:21:45;;;;;;;10.00;9.20;;;17.90;99.90;;;;;;4873817;29;20840;-83
2022/05/17 06:24:12;;;;;;;11.00;9.80;;;18.10;99.90;;;;;;4879651;29;20504;-86
2022/05/17 06:26:39;;;;;;;10.77;9.77;;;18.20;99.90;;;;;;4876408;29;20489;-85
2022/05/17 06:29:07;;;;;;;12.57;10.07;;;18.30;99.90;;;;;;4875650;29;20484;-84
2022/05/17 06:31:34;;;;;;;16.33;11.27;;;18.50;99.90;;;;;;4879325;29;20516;-84
2022/05/17 06:34:03;;;;;;;10.87;9.63;;;18.60;99.90;;;;;;4884603;29;20487;-87
2022/05/17 06:36:30;;;;;;;9.60;8.70;;;18.70;99.90;;;;;;4890048;29;20500;-84
2022/05/17 06:39:16;;;;;;;10.37;9.27;;;18.60;99.90;;;;;;4890993;29;20670;-82
2022/05/17 06:41:44;;;;;;;10.00;9.00;;;18.60;99.90;;;;;;4885185;29;20468;-80
2022/05/17 06:44:14;;;;;;;9.57;8.53;;;18.70;99.90;;;;;;4875239;29;20464;-83
2022/05/17 06:46:41;;;;;;;8.40;7.60;;;18.60;99.90;;;;;;4893223;29;20548;-85
2022/05/17 06:49:08;;;;;;;8.93;8.13;;;18.70;99.90;;;;;;4878121;29;20467;-85
2022/05/17 06:51:37;;;;;;;8.87;8.03;;;19.10;99.90;;;;;;4878785;29;20475;-82
2022/05/17 06:54:04;;;;;;;10.33;7.80;;;19.20;99.90;;;;;;4878114;29;20468;-83
2022/05/17 06:56:31;;;;;;;7.90;7.10;;;18.80;99.90;;;;;;4893016;29;20480;-82
2022/05/17 06:59:00;;;;;;;7.67;6.87;;;19.10;99.90;;;;;;4891111;29;20479;-83
2022/05/17 07:01:27;;;;;;;8.73;7.53;;;19.30;99.50;;;;;;4877009;29;20516;-84
2022/05/17 07:03:54;;;;;;;9.17;7.13;;;19.20;99.60;;;;;;4883163;29;20444;-84
2022/05/17 07:06:21;;;;;;;9.47;6.77;;;19.30;99.90;;;;;;4884045;29;20472;-84
2022/05/17 07:08:51;;;;;;;7.30;6.67;;;19.30;99.30;;;;;;4882141;29;20449;-84
2022/05/17 07:14:04;;;;;;;7.40;6.53;;;19.40;98.90;;;;;;4879658;29;20929;-86
2022/05/17 07:16:36;;;;;;;8.90;6.23;;;19.50;98.80;;;;;;4892471;29;20486;-86
2022/05/17 07:19:04;;;;;;;8.93;6.30;;;19.50;98.50;;;;;;4906868;29;20476;-86
2022/05/17 07:21:50;;;;;;;6.57;6.07;;;19.60;98.30;;;;;;4900145;29;20448;-86
2022/05/17 07:24:19;;;;;;;9.03;7.77;;;19.70;98.60;;;;;;4893654;29;20528;-85
2022/05/17 07:26:47;;;;;;;7.83;6.67;;;19.70;98.50;;;;;;4892377;29;20572;-86
2022/05/17 07:29:37;;;;;;;7.47;6.63;;;19.60;98.30;;;;;;4889263;29;20432;-85
2022/05/17 07:32:04;;;;;;;6.63;6.00;;;19.70;98.30;;;;;;4883584;29;20472;-84
2022/05/17 07:34:33;;;;;;;7.47;6.30;;;19.70;98.00;;;;;;4890482;29;20472;-85
2022/05/17 07:36:59;;;;;;;6.67;5.77;;;19.80;97.90;;;;;;4891783;29;20527;-86
2022/05/17 07:39:26;;;;;;;6.63;5.83;;;20.00;97.20;;;;;;4882305;29;20492;-84
2022/05/17 07:41:53;;;;;;;6.13;5.57;;;19.90;97.20;;;;;;4875765;29;20465;-83
2022/05/17 07:44:25;;;;;;;9.30;5.80;;;19.50;98.00;;;;;;4876938;29;20480;-84
2022/05/17 07:46:52;;;;;;;6.87;6.03;;;19.70;98.20;;;;;;4876297;29;20464;-85
2022/05/17 07:49:29;;;;;;;5.80;5.20;;;20.10;97.30;;;;;;4880431;29;20981;-84
2022/05/17 07:51:55;;;;;;;10.30;6.07;;;20.20;96.50;;;;;;4879121;29;20784;-84
2022/05/17 07:54:22;;;;;;;6.33;5.70;;;20.20;96.10;;;;;;4876454;29;20957;-82
2022/05/17 07:56:49;;;;;;;7.53;5.40;;;20.30;96.40;;;;;;4877559;29;20452;-84
2022/05/17 07:59:16;;;;;;;6.47;5.70;;;20.60;96.10;;;;;;4877948;29;20495;-85
2022/05/17 08:01:48;;;;;;;8.77;6.20;;;20.60;95.60;;;;;;4875101;29;20465;-82
2022/05/17 08:04:15;;;;;;;6.50;4.93;;;21.00;95.50;;;;;;4887687;29;20527;-84
2022/05/17 08:06:44;;;;;;;8.03;6.20;;;21.40;94.30;;;;;;4877287;29;20480;-83
2022/05/17 08:09:11;;;;;;;7.73;5.60;;;21.60;93.80;;;;;;4875890;29;20464;-84
2022/05/17 08:11:51;;;;;;;5.80;5.30;;;21.80;92.90;;;;;;4877530;29;20457;-86
2022/05/17 08:14:18;;;;;;;8.33;5.93;;;21.90;93.20;;;;;;4876485;29;21009;-86
2022/05/17 08:16:45;;;;;;;8.07;5.47;;;22.30;92.50;;;;;;4872683;29;20491;-83
2022/05/17 08:19:12;;;;;;;6.37;5.77;;;22.30;92.30;;;;;;4873519;29;20484;-85
2022/05/17 08:21:39;;;;;;;7.73;5.80;;;22.10;92.40;;;;;;4872852;29;20467;-83
2022/05/17 08:24:07;;;;;;;10.53;6.40;;;21.80;93.10;;;;;;4889874;29;20452;-81
2022/05/17 08:29:19;;;;;;;10.57;6.10;;;22.00;93.50;;;;;;4874429;29;20881;-83
2022/05/17 08:33:14;;;;;;;7.97;6.23;;;22.00;93.40;;;;;;4876245;29;20832;-83
2022/05/17 08:34:33;;;;;;;10.07;6.23;;;22.10;93.50;;;;;;4876125;29;20841;-83
2022/05/17 08:37:00;;;;;;;9.90;5.90;;;22.90;92.20;;;;;;4874667;29;20447;-86
2022/05/17 08:39:28;;;;;;;7.90;5.87;;;23.30;90.90;;;;;;4873621;29;22388;-83
2022/05/17 08:42:19;;;;;;;6.30;5.70;;;23.00;90.80;;;;;;4870632;29;20475;-84
2022/05/17 08:44:52;;;;;;;9.43;7.23;;;23.30;91.10;;;;;;4869317;29;20488;-83
2022/05/17 08:47:34;;;;;;;6.77;6.10;;;23.90;88.90;;;;;;4874746;29;20472;-85
2022/05/17 08:50:25;;;;;;;7.20;6.50;;;24.10;89.60;;;;;;4884254;29;20456;-85
2022/05/17 08:52:54;;;;;;;7.67;6.33;;;25.40;86.10;;;;;;4872034;29;20965;-84
2022/05/17 08:55:34;;;;;;;11.77;7.10;;;26.70;78.80;;;;;;4873546;29;20506;-83
2022/05/17 08:58:16;;;;;;;7.83;5.87;;;26.60;77.80;;;;;;4873577;29;20484;-81
2022/05/17 09:01:06;;;;;;;7.57;6.43;;;26.40;77.80;;;;;;4882126;29;20499;-86
2022/05/17 09:03:59;;;;;;;9.30;6.20;;;25.70;80.10;;;;;;4887074;29;20551;-85
2022/05/17 09:06:36;;;;;;;11.87;6.93;;;25.40;81.80;;;;;;4871744;29;20491;-82
2022/05/17 09:09:08;;;;;;;6.67;6.07;;;24.80;84.10;;;;;;4872514;29;20460;-86
2022/05/17 09:11:49;;;;;;;9.80;6.97;;;24.50;84.90;;;;;;4869751;29;20465;-83
2022/05/17 09:14:19;;;;;;;8.40;6.20;;;24.50;85.80;;;;;;4869315;29;20460;-81
2022/05/17 09:16:57;;;;;;;8.30;6.10;;;24.70;85.60;;;;;;4871089;29;21186;-84
2022/05/17 09:19:24;;;;;;;7.43;6.33;;;24.80;84.90;;;;;;4876940;29;20461;-83
2022/05/17 09:21:53;;;;;;;10.00;6.57;;;25.00;84.20;;;;;;4884208;29;20488;-86
2022/05/17 09:24:21;;;;;;;6.37;5.60;;;25.30;82.90;;;;;;4878314;29;20461;-84
2022/05/17 09:27:00;;;;;;;6.57;5.87;;;25.50;80.80;;;;;;4873280;29;20496;-85
2022/05/17 09:29:39;;;;;;;7.10;5.63;;;25.50;81.80;;;;;;4881688;29;20455;-85
2022/05/17 09:32:11;;;;;;;6.07;5.23;;;25.50;80.80;;;;;;4879068;29;20459;-85
2022/05/17 09:34:40;;;;;;;5.90;5.03;;;25.20;80.10;;;;;;4897146;29;20489;-84
2022/05/17 09:37:14;;;;;;;7.10;4.80;;;25.10;79.90;;;;;;4877629;29;20474;-85
2022/05/17 09:39:51;;;;;;;5.53;5.03;;;24.90;79.50;;;;;;4890675;29;21022;-85
2022/05/17 09:42:25;;;;;;;5.80;4.33;;;24.50;81.70;;;;;;4875789;29;20455;-85
2022/05/17 09:44:52;;;;;;;7.47;3.30;;;24.60;80.90;;;;;;4887986;29;20512;-83
2022/05/17 09:47:32;;;;;;;7.43;3.40;;;24.60;76.60;;;;;;4873520;29;20472;-85
2022/05/17 09:53:14;;;;;;;4.63;3.50;;;24.80;75.70;;;;;;4873764;29;20451;-85
2022/05/17 09:55:43;;;;;;;6.10;5.50;;;24.70;76.10;;;;;;4869566;29;20484;-84
2022/05/17 09:58:27;;;;;;;4.00;2.30;;;24.80;75.90;;;;;;4871899;29;20453;-85
2022/05/17 10:00:54;;;;;;;5.40;3.17;;;24.70;73.10;;;;;;4867245;29;20897;-85
2022/05/17 10:03:36;;;;;;;6.90;3.83;;;24.60;73.90;;;;;;4869306;29;20471;-85
2022/05/17 10:06:12;;;;;;;11.23;4.10;;;24.50;76.90;;;;;;4877656;29;20499;-84
2022/05/17 10:08:56;;;;;;;5.17;3.87;;;24.30;78.30;;;;;;4871501;29;20516;-84
2022/05/17 10:11:25;;;;;;;3.60;3.27;;;24.20;79.00;;;;;;4872584;29;20474;-84
2022/05/17 10:14:12;;;;;;;4.33;3.50;;;24.30;79.30;;;;;;4871949;29;20484;-83
2022/05/17 10:16:57;;;;;;;4.80;3.10;;;24.30;78.30;;;;;;4875402;29;20484;-86
2022/05/17 10:19:54;;;;;;;3.37;3.00;;;24.10;80.00;;;;;;4876381;29;20578;-84
2022/05/17 10:22:37;;;;;;;3.93;3.50;;;24.00;79.30;;;;;;4883440;29;20463;-85
2022/05/17 10:25:09;;;;;;;4.13;3.10;;;24.10;79.40;;;;;;4868552;29;20563;-86
2022/05/17 10:27:44;;;;;;;4.67;3.30;;;24.00;80.10;;;;;;4876686;29;20537;-85
2022/05/17 10:30:25;;;;;;;5.30;3.20;;;24.10;78.00;;;;;;4870090;29;20476;-86
2022/05/17 10:33:00;;;;;;;4.60;2.93;;;24.00;77.90;;;;;;4870812;29;20535;-85
2022/05/17 10:35:50;;;;;;;3.10;2.53;;;24.30;77.60;;;;;;4872364;29;20499;-84
2022/05/17 10:38:24;;;;;;;3.10;2.50;;;24.30;75.20;;;;;;4894865;29;20470;-84
2022/05/17 10:40:53;;;;;;;4.50;2.43;;;23.90;76.30;;;;;;4874974;29;20499;-82
2022/05/17 10:43:25;;;;;;;3.97;2.73;;;23.90;75.40;;;;;;4890660;29;20544;-85
2022/05/17 10:46:05;;;;;;;3.50;2.10;;;23.70;76.80;;;;;;4890359;29;20468;-85
2022/05/17 10:48:55;;;;;;;2.73;2.03;;;23.50;77.70;;;;;;4874104;29;21915;-85
2022/05/17 10:51:26;;;;;;;2.20;2.00;;;23.70;77.40;;;;;;4890885;29;20576;-86
2022/05/17 10:54:08;;;;;;;2.80;1.90;;;23.80;75.60;;;;;;4877119;29;20469;-83
2022/05/17 10:56:41;;;;;;;4.17;2.90;;;24.20;74.40;;;;;;4871822;29;20488;-85
2022/05/17 10:59:32;;;;;;;5.53;2.23;;;24.40;74.00;;;;;;4888867;29;20463;-83
2022/05/17 11:02:13;;;;;;;3.70;2.70;;;24.50;74.50;;;;;;4876752;29;20515;-84
2022/05/17 11:04:58;;;;;;;2.97;2.23;;;24.60;73.70;;;;;;4873846;29;20472;-85
2022/05/17 11:07:41;;;;;;;5.53;2.30;;;24.90;71.60;;;;;;4889918;29;20479;-84
2022/05/17 11:10:26;;;;;;;2.63;2.43;;;24.80;70.60;;;;;;4872082;29;20500;-84
2022/05/17 11:13:05;;;;;;;2.60;1.40;;;24.70;70.30;;;;;;4874054;29;22110;-84
2022/05/17 11:15:41;;;;;;;2.63;1.87;;;24.40;70.20;;;;;;4888769;29;20617;-84
2022/05/17 11:18:23;;;;;;;2.40;2.03;;;25.20;68.50;;;;;;4880547;29;20487;-82
2022/05/17 11:20:56;;;;;;;2.53;1.60;;;25.30;67.40;;;;;;4873738;29;20893;-87
2022/05/17 11:23:45;;;;;;;2.10;1.57;;;25.40;66.00;;;;;;4887793;29;20457;-85
2022/05/17 11:26:50;;;;;;;1.67;1.50;;;25.80;63.70;;;;;;4875143;29;20476;-84
2022/05/17 11:29:59;;;;;;;2.93;1.60;;;26.10;62.60;;;;;;4876581;29;20444;-87
2022/05/17 11:32:34;;;;;;;2.40;1.67;;;26.10;61.10;;;;;;4855901;29;20461;-85
2022/05/17 11:35:22;;;;;;;4.33;1.77;;;25.80;62.00;;;;;;4881158;29;20478;-86
2022/05/17 11:37:51;;;;;;;2.20;1.40;;;25.40;61.50;;;;;;4874662;29;20463;-83
2022/05/17 11:40:42;;;;;;;2.57;1.50;;;25.70;62.10;;;;;;4877207;29;20511;-84
2022/05/17 11:45:57;;;;;;;2.60;1.63;;;25.60;60.00;;;;;;4874047;29;20559;-85
2022/05/17 11:48:42;;;;;;;3.60;1.50;;;25.60;60.00;;;;;;4872082;29;20457;-85
2022/05/17 11:51:10;;;;;;;2.83;1.60;;;25.50;59.60;;;;;;4876876;29;20504;-86
2022/05/17 11:53:46;;;;;;;3.73;1.73;;;25.40;60.00;;;;;;4889585;29;20479;-85
2022/05/17 11:56:25;;;;;;;1.70;1.40;;;25.40;59.50;;;;;;4876321;29;20480;-84
2022/05/17 11:58:56;;;;;;;2.93;1.60;;;25.40;60.00;;;;;;4874734;29;20475;-84
2022/05/17 12:01:29;;;;;;;2.73;1.60;;;25.30;60.00;;;;;;4886952;29;20488;-86
2022/05/17 12:03:58;;;;;;;3.50;1.80;;;25.30;60.10;;;;;;4875607;29;20470;-84
2022/05/17 12:06:31;;;;;;;2.17;1.60;;;25.40;60.60;;;;;;4875382;29;20485;-87
2022/05/17 12:09:00;;;;;;;3.83;1.30;;;25.80;60.00;;;;;;4887082;29;20468;-84
2022/05/17 12:11:49;;;;;;;1.70;1.50;;;25.60;60.10;;;;;;4874569;29;20461;-85
2022/05/17 12:14:29;;;;;;;2.50;1.30;;;26.20;58.30;;;;;;4873630;29;22282;-85
2022/05/17 12:17:03;;;;;;;2.87;1.67;;;26.30;58.40;;;;;;4869481;29;20470;-83
2022/05/17 12:19:57;;;;;;;2.47;2.03;;;26.20;58.40;;;;;;4876798;29;20513;-83
2022/05/17 12:22:52;;;;;;;5.30;4.03;;;26.30;58.10;;;;;;4876993;29;20488;-84
2022/05/17 12:25:27;;;;;;;3.83;2.07;;;26.20;58.60;;;;;;4870792;29;20491;-84
2022/05/17 12:27:55;;;;;;;3.30;1.87;;;26.00;58.60;;;;;;4879619;29;20452;-85
2022/05/17 12:33:24;;;;;;;2.60;1.80;;;25.70;59.20;;;;;;4881436;29;20467;-84
2022/05/17 12:35:52;;;;;;;3.63;2.00;;;25.50;59.60;;;;;;4893866;29;20490;-85
2022/05/17 12:44:07;;;;;;;2.67;1.60;;;25.60;61.10;;;;;;4885269;29;20523;-86
2022/05/17 12:46:45;;;;;;;3.27;1.53;;;25.90;60.70;;;;;;4895274;29;20554;-85
2022/05/17 12:49:28;;;;;;;2.53;1.30;;;26.00;60.50;;;;;;4881560;29;20540;-85
2022/05/17 12:52:00;;;;;;;3.90;2.17;;;25.80;60.60;;;;;;4880645;29;22128;-84
2022/05/17 12:54:32;;;;;;;4.67;1.93;;;25.80;59.80;;;;;;4876111;29;20453;-86
2022/05/17 12:57:39;;;;;;;2.13;1.67;;;25.40;61.30;;;;;;4874840;29;22095;-86
2022/05/17 13:00:31;;;;;;;2.80;1.97;;;25.50;62.00;;;;;;4833445;29;20885;-86
2022/05/17 13:03:03;;;;;;;2.50;1.40;;;25.60;62.40;;;;;;4889932;29;20564;-83
2022/05/17 13:05:38;;;;;;;2.27;1.90;;;26.20;60.50;;;;;;4877090;29;20534;-83
2022/05/17 13:08:26;;;;;;;3.90;1.70;;;26.30;60.20;;;;;;4875264;29;20468;-85
2022/05/17 13:11:00;;;;;;;2.87;1.87;;;26.40;59.40;;;;;;4874754;29;20500;-86
2022/05/17 13:13:27;;;;;;;1.50;1.40;;;26.50;59.40;;;;;;4879077;29;20575;-86
2022/05/17 13:16:01;;;;;;;1.63;1.53;;;27.00;58.40;;;;;;4876689;29;20470;-84
2022/05/17 13:18:51;;;;;;;4.50;2.33;;;27.30;57.30;;;;;;4881341;29;20467;-83
2022/05/17 13:21:37;;;;;;;3.00;1.90;;;26.90;58.10;;;;;;4875475;29;20492;-84
2022/05/17 13:24:19;;;;;;;4.40;1.67;;;26.90;58.20;;;;;;4874611;29;20467;-83
2022/05/17 13:26:52;;;;;;;1.70;1.47;;;26.90;58.10;;;;;;4874597;29;20895;-84
2022/05/17 13:29:32;;;;;;;1.33;1.23;;;27.20;57.60;;;;;;4874512;29;20484;-85